createdAt,value
2023-04-26T00:04:16.192Z,3.50
2023-04-26T00:09:19.714Z,3.90
2023-04-26T00:14:21.248Z,4.80
2023-04-26T00:19:24.342Z,3.90
2023-04-26T00:24:25.980Z,4.60
2023-04-26T00:29:27.557Z,2.30
2023-04-26T00:34:38.754Z,4.20
2023-04-26T00:39:40.293Z,5.40
2023-04-26T00:44:42.508Z,3.80
2023-04-26T00:49:44.417Z,5.10
2023-04-26T00:54:46.205Z,4.40
2023-04-26T00:59:48.770Z,4.30
2023-04-26T01:04:50.674Z,5.00
2023-04-26T01:09:52.692Z,2.80
2023-04-26T01:14:55.268Z,2.70
2023-04-26T01:19:57.222Z,2.00
2023-04-26T01:25:01.624Z,2.20
2023-04-26T01:30:03.742Z,2.00
2023-04-26T01:35:07.357Z,1.80
2023-04-26T01:45:11.828Z,2.10
2023-04-26T01:50:13.394Z,2.10
2023-04-26T01:55:14.874Z,2.10
2023-04-26T02:00:20.118Z,1.70
2023-04-26T02:05:22.466Z,2.20
2023-04-26T02:10:24.224Z,2.90
2023-04-26T02:15:25.888Z,2.30
2023-04-26T02:20:27.389Z,2.10
2023-04-26T02:25:28.890Z,2.40
2023-04-26T02:30:37.160Z,3.80
2023-04-26T02:35:38.689Z,5.60
2023-04-26T02:40:40.463Z,2.50
2023-04-26T02:45:43.291Z,2.70
2023-04-26T02:50:45.096Z,2.50
2023-04-26T02:55:46.629Z,3.40
2023-04-26T03:00:49.840Z,1.90
2023-04-26T03:05:51.421Z,2.40
2023-04-26T03:10:52.919Z,3.10
2023-04-26T03:15:54.460Z,3.30
2023-04-26T03:20:55.953Z,3.00
2023-04-26T03:25:57.455Z,3.20
2023-04-26T03:30:59.038Z,3.10
2023-04-26T03:36:00.601Z,3.60
2023-04-26T03:41:02.076Z,3.30
2023-04-26T03:46:04.526Z,4.00
2023-04-26T03:51:06.622Z,4.40
2023-04-26T03:56:08.719Z,4.20
2023-04-26T04:01:10.272Z,5.40
2023-04-26T04:06:12.641Z,4.90
2023-04-26T04:11:14.134Z,5.60
2023-04-26T04:16:15.966Z,6.00
2023-04-26T04:21:17.562Z,4.30
2023-04-26T04:26:19.215Z,5.60
2023-04-26T04:31:21.817Z,6.50
2023-04-26T04:36:23.295Z,5.60
2023-04-26T04:41:24.965Z,7.60
2023-04-26T04:46:26.517Z,4.60
2023-04-26T04:51:28.132Z,5.80
2023-04-26T04:56:29.735Z,4.90
2023-04-26T05:01:35.107Z,5.60
2023-04-26T05:06:36.896Z,5.60
2023-04-26T05:11:38.434Z,4.30
2023-04-26T05:16:40.056Z,6.60
2023-04-26T05:21:42.053Z,4.60
2023-04-26T05:26:43.606Z,5.80
2023-04-26T05:31:45.628Z,4.70
2023-04-26T05:36:47.217Z,11.70
2023-04-26T05:41:48.733Z,4.80
2023-04-26T05:46:50.331Z,4.80
2023-04-26T05:51:52.403Z,5.60
2023-04-26T05:56:53.969Z,4.40
2023-04-26T06:01:55.566Z,5.90
2023-04-26T06:06:58.091Z,5.50
2023-04-26T06:11:59.897Z,5.40
2023-04-26T06:17:01.494Z,4.50
2023-04-26T06:22:03.052Z,5.00
2023-04-26T06:27:04.594Z,5.40
2023-04-26T06:32:06.498Z,4.70
2023-04-26T06:37:08.001Z,4.50
2023-04-26T06:42:09.570Z,3.00
2023-04-26T06:47:11.326Z,4.80
2023-04-26T06:52:12.845Z,4.20
2023-04-26T06:57:14.760Z,2.90
2023-04-26T07:02:16.369Z,3.60
2023-04-26T07:07:18.223Z,4.10
2023-04-26T07:12:19.749Z,2.80
2023-04-26T07:17:22.362Z,3.10
2023-04-26T07:22:24.222Z,3.70
2023-04-26T07:27:26.214Z,3.00
2023-04-26T07:32:27.748Z,3.20
2023-04-26T07:37:29.266Z,3.10
2023-04-26T07:42:31.436Z,4.70
2023-04-26T07:47:32.951Z,3.40
2023-04-26T07:52:34.670Z,2.80
2023-04-26T07:57:36.499Z,2.40
2023-04-26T08:07:44.861Z,3.80
2023-04-26T08:12:46.514Z,4.10
2023-04-26T08:17:48.418Z,2.70
2023-04-26T08:22:50.128Z,3.00
2023-04-26T08:27:52.514Z,4.10
2023-04-26T08:32:54.109Z,2.80
2023-04-26T08:37:55.795Z,3.80
2023-04-26T08:42:57.510Z,2.80
2023-04-26T08:48:05.701Z,3.00
2023-04-26T08:53:08.361Z,3.50
2023-04-26T08:58:11.807Z,2.50
2023-04-26T09:03:13.826Z,2.00
2023-04-26T09:08:19.300Z,3.10
2023-04-26T09:13:20.894Z,2.80
2023-04-26T09:18:23.758Z,2.40
2023-04-26T09:23:25.394Z,2.60
2023-04-26T09:28:27.800Z,3.10
2023-04-26T09:33:29.548Z,3.00
2023-04-26T09:38:42.923Z,2.50
2023-04-26T09:43:44.611Z,2.40
2023-04-26T09:49:00.376Z,3.20
2023-04-26T09:54:01.932Z,2.70
2023-04-26T09:59:05.748Z,3.90
2023-04-26T10:04:07.759Z,3.00
2023-04-26T10:09:09.611Z,2.60
2023-04-26T10:14:12.231Z,2.90
2023-04-26T10:19:14.293Z,2.30
2023-04-26T10:24:16.138Z,1.70
2023-04-26T10:29:18.579Z,2.50
2023-04-26T10:34:21.679Z,2.40
2023-04-26T10:39:24.914Z,2.40
2023-04-26T10:44:45.863Z,1.70
2023-04-26T10:54:55.100Z,2.30
2023-04-26T11:00:20.358Z,2.10
2023-04-26T11:05:47.334Z,1.90
2023-04-26T11:16:04.254Z,2.30
2023-04-26T11:21:07.229Z,2.40
2023-04-26T11:26:09.560Z,1.70
2023-04-26T11:31:11.733Z,2.00
2023-04-26T11:36:14.397Z,2.50
2023-04-26T11:41:16.006Z,2.10
2023-04-26T11:46:21.584Z,2.30
2023-04-26T11:51:24.107Z,2.30
2023-04-26T11:56:25.589Z,2.50
2023-04-26T12:01:28.778Z,1.90
2023-04-26T12:06:46.989Z,2.20
2023-04-26T12:11:53.526Z,2.30
2023-04-26T12:16:55.143Z,2.10
2023-04-26T12:21:57.568Z,1.90
2023-04-26T12:27:00.262Z,2.10
2023-04-26T12:32:04.505Z,1.80
2023-04-26T12:37:06.398Z,2.10
2023-04-26T12:42:08.003Z,2.60
2023-04-26T12:47:09.562Z,4.40
2023-04-26T12:52:11.128Z,2.50
2023-04-26T12:57:12.907Z,2.70
2023-04-26T13:02:14.449Z,2.50
2023-04-26T13:07:16.371Z,2.20
2023-04-26T13:12:17.998Z,1.90
2023-04-26T13:17:19.542Z,2.50
2023-04-26T13:22:21.591Z,2.50
2023-04-26T13:27:23.123Z,1.90
2023-04-26T13:32:24.676Z,2.50
2023-04-26T13:37:26.990Z,2.20
2023-04-26T13:42:28.593Z,2.80
2023-04-26T13:47:31.310Z,3.00
2023-04-26T13:52:33.459Z,2.50
2023-04-26T13:57:34.967Z,2.50
2023-04-26T14:02:36.675Z,2.60
2023-04-26T14:07:40.569Z,2.40
2023-04-26T14:12:42.326Z,2.10
2023-04-26T14:17:46.797Z,2.70
2023-04-26T14:22:50.223Z,2.20
2023-04-26T14:32:55.264Z,2.70
2023-04-26T14:37:56.942Z,2.00
2023-04-26T14:42:58.484Z,2.40
2023-04-26T14:48:01.870Z,2.60
2023-04-26T14:58:05.730Z,2.20
2023-04-26T15:03:07.557Z,2.10
2023-04-26T15:08:09.365Z,2.50
2023-04-26T15:13:10.950Z,2.00
2023-04-26T15:18:12.446Z,2.10
2023-04-26T15:23:14.090Z,3.00
2023-04-26T15:28:17.650Z,2.00
2023-04-26T15:33:19.737Z,4.30
2023-04-26T15:38:22.113Z,2.00
2023-04-26T15:43:23.701Z,2.70
2023-04-26T15:48:26.343Z,3.50
2023-04-26T15:53:27.893Z,4.10
2023-04-26T15:58:29.663Z,2.70
2023-04-26T16:03:31.486Z,1.80
2023-04-26T16:13:40.645Z,3.30
2023-04-26T16:18:43.836Z,2.90
2023-04-26T16:23:45.652Z,2.80
2023-04-26T16:28:47.319Z,2.30
2023-04-26T16:33:48.978Z,6.40
2023-04-26T16:38:50.984Z,2.10
2023-04-26T16:43:53.218Z,2.40
2023-04-26T16:48:54.802Z,3.50
2023-04-26T16:53:56.331Z,2.70
2023-04-26T16:58:57.876Z,2.50
2023-04-26T17:03:59.493Z,3.00
2023-04-26T17:09:01.295Z,3.30
2023-04-26T17:14:04.387Z,2.40
2023-04-26T17:19:06.860Z,4.20
2023-04-26T17:24:08.538Z,3.80
2023-04-26T17:29:10.891Z,4.40
2023-04-26T17:34:12.417Z,4.60
2023-04-26T17:39:13.890Z,3.80
2023-04-26T17:44:15.373Z,5.10
2023-04-26T17:49:16.848Z,6.10
2023-04-26T17:54:18.452Z,5.20
2023-04-26T17:59:20.018Z,4.80
2023-04-26T18:04:21.866Z,6.40
2023-04-26T18:09:23.542Z,16.50
2023-04-26T18:14:26.536Z,10.30
2023-04-26T18:19:28.045Z,19.20
2023-04-26T18:24:29.948Z,14.80
2023-04-26T18:29:32.147Z,21.50
2023-04-26T18:34:33.636Z,12.60
2023-04-26T18:39:35.223Z,13.80
2023-04-26T18:44:36.734Z,12.10
2023-04-26T18:49:38.294Z,7.50
2023-04-26T18:54:39.925Z,9.00
2023-04-26T18:59:41.721Z,10.90
2023-04-26T19:04:43.451Z,13.20
2023-04-26T19:09:53.686Z,14.70
2023-04-26T19:14:56.855Z,15.00
2023-04-26T19:19:58.673Z,17.90
2023-04-26T19:25:01.130Z,16.30
2023-04-26T19:30:02.803Z,20.50
2023-04-26T19:35:06.156Z,15.00
2023-04-26T19:40:10.099Z,10.90
2023-04-26T19:45:11.773Z,12.20
2023-04-26T19:50:13.435Z,13.90
2023-04-26T19:55:15.180Z,15.30
2023-04-26T20:00:16.929Z,19.30
2023-04-26T20:05:18.553Z,13.50
2023-04-26T20:10:23.906Z,12.00
2023-04-26T20:15:26.532Z,15.10
2023-04-26T20:20:28.114Z,19.80
2023-04-26T20:25:29.590Z,19.70
2023-04-26T20:30:40.727Z,17.80
2023-04-26T20:35:45.404Z,14.90
2023-04-26T20:40:48.715Z,14.40
2023-04-26T20:45:50.888Z,11.70
2023-04-26T20:50:58.264Z,9.80
2023-04-26T20:55:59.793Z,10.00
2023-04-26T21:01:02.828Z,13.20
2023-04-26T21:06:06.204Z,19.90
2023-04-26T21:11:07.743Z,12.20
2023-04-26T21:16:09.310Z,11.50
2023-04-26T21:21:11.176Z,10.30
2023-04-26T21:26:13.385Z,8.50
2023-04-26T21:31:14.975Z,8.50
2023-04-26T21:36:16.734Z,10.30
2023-04-26T21:41:18.262Z,8.30
2023-04-26T21:46:19.865Z,6.90
2023-04-26T21:51:21.385Z,6.60
2023-04-26T21:56:24.122Z,7.70
2023-04-26T22:01:25.741Z,6.60
2023-04-26T22:06:27.346Z,12.30
2023-04-26T22:11:28.841Z,10.60
2023-04-26T22:16:30.462Z,7.60
2023-04-26T22:21:32.374Z,7.80
2023-04-26T22:26:34.072Z,7.50
2023-04-26T22:31:35.660Z,11.50
2023-04-26T22:36:37.280Z,9.10
2023-04-26T22:41:38.784Z,8.90
2023-04-26T22:46:40.660Z,8.30
2023-04-26T22:51:45.929Z,9.40
2023-04-26T22:56:52.663Z,8.60
2023-04-26T23:01:54.167Z,8.60
2023-04-26T23:06:55.911Z,7.90
2023-04-26T23:11:59.502Z,8.80
2023-04-26T23:17:01.118Z,8.90
2023-04-26T23:22:02.666Z,7.30
2023-04-26T23:27:05.041Z,6.60
2023-04-26T23:32:06.709Z,6.00
2023-04-26T23:37:08.425Z,6.30
2023-04-26T23:42:10.185Z,6.90
2023-04-26T23:47:11.681Z,6.00
2023-04-26T23:52:13.235Z,5.40
2023-04-26T23:57:14.713Z,5.60
